sensor_id;sensor_type;location;lat;lon;timestamp;temperature;humidity
15676;DHT22;7938;47.666;9.434;2023-05-18T04:02:17;6.10;99.90
15676;DHT22;7938;47.666;9.434;2023-05-18T04:04:43;6.10;99.90
15676;DHT22;7938;47.666;9.434;2023-05-18T04:07:12;6.00;99.90
15676;DHT22;7938;47.666;9.434;2023-05-18T04:09:41;5.90;99.90
15676;DHT22;7938;47.666;9.434;2023-05-18T04:12:08;5.90;99.90
15676;DHT22;7938;47.666;9.434;2023-05-18T04:14:36;5.90;99.90
15676;DHT22;7938;47.666;9.434;2023-05-18T04:17:03;5.90;99.90
15676;DHT22;7938;47.666;9.434;2023-05-18T04:19:32;5.90;99.90
15676;DHT22;7938;47.666;9.434;2023-05-18T04:21:59;5.90;99.90
15676;DHT22;7938;47.666;9.434;2023-05-18T04:24:29;5.90;99.90
15676;DHT22;7938;47.666;9.434;2023-05-18T04:26:57;5.90;99.90
15676;DHT22;7938;47.666;9.434;2023-05-18T04:29:25;5.90;99.90
15676;DHT22;7938;47.666;9.434;2023-05-18T04:31:52;6.00;99.90
15676;DHT22;7938;47.666;9.434;2023-05-18T04:34:25;6.00;99.90
15676;DHT22;7938;47.666;9.434;2023-05-18T04:36:53;6.00;99.90
15676;DHT22;7938;47.666;9.434;2023-05-18T04:39:21;6.10;99.90
15676;DHT22;7938;47.666;9.434;2023-05-18T04:41:48;6.20;99.90
15676;DHT22;7938;47.666;9.434;2023-05-18T04:44:22;6.30;99.90
15676;DHT22;7938;47.666;9.434;2023-05-18T04:46:50;6.30;99.90
15676;DHT22;7938;47.666;9.434;2023-05-18T04:49:17;6.40;99.90
15676;DHT22;7938;47.666;9.434;2023-05-18T04:51:46;6.50;99.90
15676;DHT22;7938;47.666;9.434;2023-05-18T04:54:15;6.50;99.90
15676;DHT22;7938;47.666;9.434;2023-05-18T04:56:45;6.50;99.90
15676;DHT22;7938;47.666;9.434;2023-05-18T04:59:12;6.50;99.90
15676;DHT22;7938;47.666;9.434;2023-05-18T05:01:38;6.60;99.90
15676;DHT22;7938;47.666;9.434;2023-05-18T05:04:05;6.60;99.90
15676;DHT22;7938;47.666;9.434;2023-05-18T05:06:32;6.60;99.90
15676;DHT22;7938;47.666;9.434;2023-05-18T05:08:59;6.70;99.90
15676;DHT22;7938;47.666;9.434;2023-05-18T05:11:27;6.70;99.90
15676;DHT22;7938;47.666;9.434;2023-05-18T05:13:54;6.80;99.90
15676;DHT22;7938;47.666;9.434;2023-05-18T05:16:21;6.80;99.90
15676;DHT22;7938;47.666;9.434;2023-05-18T05:18:48;6.90;99.90
15676;DHT22;7938;47.666;9.434;2023-05-18T05:21:15;7.00;99.90
15676;DHT22;7938;47.666;9.434;2023-05-18T05:23:41;7.10;99.90
15676;DHT22;7938;47.666;9.434;2023-05-18T05:26:09;7.20;99.90
15676;DHT22;7938;47.666;9.434;2023-05-18T05:28:38;7.30;99.90
15676;DHT22;7938;47.666;9.434;2023-05-18T05:31:05;7.30;99.90
15676;DHT22;7938;47.666;9.434;2023-05-18T05:33:32;7.30;99.90
15676;DHT22;7938;47.666;9.434;2023-05-18T05:35:59;7.40;99.90
15676;DHT22;7938;47.666;9.434;2023-05-18T05:38:25;7.30;99.90
15676;DHT22;7938;47.666;9.434;2023-05-18T05:40:52;7.60;99.90
15676;DHT22;7938;47.666;9.434;2023-05-18T05:43:19;7.60;99.90
15676;DHT22;7938;47.666;9.434;2023-05-18T05:45:47;7.60;99.90
15676;DHT22;7938;47.666;9.434;2023-05-18T05:48:14;7.60;99.90
15676;DHT22;7938;47.666;9.434;2023-05-18T05:50:41;7.80;99.90
15676;DHT22;7938;47.666;9.434;2023-05-18T05:53:08;7.80;99.90
15676;DHT22;7938;47.666;9.434;2023-05-18T05:55:35;7.80;99.90
15676;DHT22;7938;47.666;9.434;2023-05-18T05:58:05;7.90;99.90
15676;DHT22;7938;47.666;9.434;2023-05-18T06:00:32;8.00;99.90
15676;DHT22;7938;47.666;9.434;2023-05-18T06:03:00;8.00;99.90
15676;DHT22;7938;47.666;9.434;2023-05-18T06:05:28;8.10;99.90
15676;DHT22;7938;47.666;9.434;2023-05-18T06:07:55;8.20;99.90
15676;DHT22;7938;47.666;9.434;2023-05-18T06:10:22;8.40;99.90
15676;DHT22;7938;47.666;9.434;2023-05-18T06:12:49;8.40;99.90
15676;DHT22;7938;47.666;9.434;2023-05-18T06:15:17;8.50;99.90
15676;DHT22;7938;47.666;9.434;2023-05-18T06:17:44;8.50;99.90
15676;DHT22;7938;47.666;9.434;2023-05-18T06:20:13;8.50;99.90
15676;DHT22;7938;47.666;9.434;2023-05-18T06:22:40;8.60;99.90
15676;DHT22;7938;47.666;9.434;2023-05-18T06:25:08;8.60;99.90
15676;DHT22;7938;47.666;9.434;2023-05-18T06:27:36;8.50;99.90
15676;DHT22;7938;47.666;9.434;2023-05-18T06:30:05;8.50;99.90
15676;DHT22;7938;47.666;9.434;2023-05-18T06:32:32;8.50;99.90
15676;DHT22;7938;47.666;9.434;2023-05-18T06:34:59;8.50;99.90
15676;DHT22;7938;47.666;9.434;2023-05-18T06:37:29;8.60;99.90
15676;DHT22;7938;47.666;9.434;2023-05-18T06:39:55;8.70;99.90
15676;DHT22;7938;47.666;9.434;2023-05-18T06:42:22;8.90;99.90
15676;DHT22;7938;47.666;9.434;2023-05-18T06:44:49;9.00;99.90
15676;DHT22;7938;47.666;9.434;2023-05-18T06:47:16;9.10;99.90
15676;DHT22;7938;47.666;9.434;2023-05-18T06:49:43;9.10;99.90
15676;DHT22;7938;47.666;9.434;2023-05-18T06:52:10;9.10;99.90
15676;DHT22;7938;47.666;9.434;2023-05-18T06:54:39;9.20;99.90
15676;DHT22;7938;47.666;9.434;2023-05-18T06:57:06;9.30;99.90
15676;DHT22;7938;47.666;9.434;2023-05-18T06:59:33;9.30;99.90
15676;DHT22;7938;47.666;9.434;2023-05-18T07:02:00;9.50;99.90
15676;DHT22;7938;47.666;9.434;2023-05-18T07:04:28;9.60;99.90
15676;DHT22;7938;47.666;9.434;2023-05-18T07:06:55;9.70;99.90
15676;DHT22;7938;47.666;9.434;2023-05-18T07:09:22;9.80;99.90
15676;DHT22;7938;47.666;9.434;2023-05-18T07:11:50;10.00;99.90
15676;DHT22;7938;47.666;9.434;2023-05-18T07:14:17;10.10;99.90
15676;DHT22;7938;47.666;9.434;2023-05-18T07:16:44;10.20;99.90
15676;DHT22;7938;47.666;9.434;2023-05-18T07:19:11;10.40;99.90
15676;DHT22;7938;47.666;9.434;2023-05-18T07:21:39;10.60;99.90
15676;DHT22;7938;47.666;9.434;2023-05-18T07:24:06;10.70;99.90
15676;DHT22;7938;47.666;9.434;2023-05-18T07:26:33;10.80;99.90
15676;DHT22;7938;47.666;9.434;2023-05-18T07:29:01;10.90;99.90
15676;DHT22;7938;47.666;9.434;2023-05-18T07:31:28;11.00;99.90
15676;DHT22;7938;47.666;9.434;2023-05-18T07:33:55;11.10;99.90
15676;DHT22;7938;47.666;9.434;2023-05-18T07:36:22;11.00;99.90
15676;DHT22;7938;47.666;9.434;2023-05-18T07:38:50;11.20;99.90
15676;DHT22;7938;47.666;9.434;2023-05-18T07:41:19;11.30;99.90
15676;DHT22;7938;47.666;9.434;2023-05-18T07:43:47;11.30;99.90
15676;DHT22;7938;47.666;9.434;2023-05-18T07:46:15;11.40;99.90
15676;DHT22;7938;47.666;9.434;2023-05-18T07:48:42;11.40;99.90
15676;DHT22;7938;47.666;9.434;2023-05-18T07:51:09;11.60;99.90
15676;DHT22;7938;47.666;9.434;2023-05-18T07:53:36;11.90;99.90
15676;DHT22;7938;47.666;9.434;2023-05-18T07:56:05;11.90;99.90
15676;DHT22;7938;47.666;9.434;2023-05-18T07:58:33;12.00;99.90
15676;DHT22;7938;47.666;9.434;2023-05-18T08:01:00;11.90;99.90
15676;DHT22;7938;47.666;9.434;2023-05-18T08:03:28;11.80;99.90
15676;DHT22;7938;47.666;9.434;2023-05-18T08:05:55;11.80;99.90
15676;DHT22;7938;47.666;9.434;2023-05-18T08:08:21;12.00;99.90
15676;DHT22;7938;47.666;9.434;2023-05-18T08:10:49;11.90;99.90
15676;DHT22;7938;47.666;9.434;2023-05-18T08:13:17;12.10;99.90
15676;DHT22;7938;47.666;9.434;2023-05-18T08:15:43;12.30;99.90
15676;DHT22;7938;47.666;9.434;2023-05-18T08:18:10;12.50;99.90
15676;DHT22;7938;47.666;9.434;2023-05-18T08:20:39;12.40;99.90
15676;DHT22;7938;47.666;9.434;2023-05-18T08:23:05;12.50;99.90
15676;DHT22;7938;47.666;9.434;2023-05-18T08:25:32;12.60;99.90
15676;DHT22;7938;47.666;9.434;2023-05-18T08:28:00;12.80;99.90
15676;DHT22;7938;47.666;9.434;2023-05-18T08:30:27;12.70;99.90
15676;DHT22;7938;47.666;9.434;2023-05-18T08:32:54;12.80;99.90
15676;DHT22;7938;47.666;9.434;2023-05-18T08:35:21;13.00;99.90
15676;DHT22;7938;47.666;9.434;2023-05-18T08:37:49;13.00;99.90
15676;DHT22;7938;47.666;9.434;2023-05-18T08:40:16;13.00;99.90
15676;DHT22;7938;47.666;9.434;2023-05-18T08:42:47;13.20;99.90
15676;DHT22;7938;47.666;9.434;2023-05-18T08:45:21;13.30;99.90
15676;DHT22;7938;47.666;9.434;2023-05-18T08:47:49;13.60;99.90
15676;DHT22;7938;47.666;9.434;2023-05-18T08:50:17;13.80;99.90
15676;DHT22;7938;47.666;9.434;2023-05-18T08:52:47;13.70;99.10
15676;DHT22;7938;47.666;9.434;2023-05-18T08:55:16;13.80;99.40
15676;DHT22;7938;47.666;9.434;2023-05-18T08:57:45;13.90;99.40
15676;DHT22;7938;47.666;9.434;2023-05-18T09:00:19;14.10;99.10
15676;DHT22;7938;47.666;9.434;2023-05-18T09:02:46;14.50;97.90
15676;DHT22;7938;47.666;9.434;2023-05-18T09:05:14;14.60;98.10
15676;DHT22;7938;47.666;9.434;2023-05-18T09:07:42;14.70;97.50
15676;DHT22;7938;47.666;9.434;2023-05-18T09:10:10;14.40;97.10
15676;DHT22;7938;47.666;9.434;2023-05-18T09:12:41;14.10;97.20
15676;DHT22;7938;47.666;9.434;2023-05-18T09:15:09;14.10;97.90
15676;DHT22;7938;47.666;9.434;2023-05-18T09:17:36;14.40;97.50
15676;DHT22;7938;47.666;9.434;2023-05-18T09:20:04;14.00;97.50
15676;DHT22;7938;47.666;9.434;2023-05-18T09:22:32;14.40;98.10
15676;DHT22;7938;47.666;9.434;2023-05-18T09:25:00;14.80;97.90
15676;DHT22;7938;47.666;9.434;2023-05-18T09:27:27;15.10;97.50
15676;DHT22;7938;47.666;9.434;2023-05-18T09:29:57;15.00;96.50
15676;DHT22;7938;47.666;9.434;2023-05-18T09:32:24;15.00;95.40
15676;DHT22;7938;47.666;9.434;2023-05-18T09:34:52;14.80;96.30
15676;DHT22;7938;47.666;9.434;2023-05-18T09:37:20;15.00;96.20
15676;DHT22;7938;47.666;9.434;2023-05-18T09:39:57;14.90;96.00
15676;DHT22;7938;47.666;9.434;2023-05-18T09:42:26;14.90;94.80
15676;DHT22;7938;47.666;9.434;2023-05-18T09:44:55;14.90;94.50
15676;DHT22;7938;47.666;9.434;2023-05-18T09:47:22;15.10;94.90
15676;DHT22;7938;47.666;9.434;2023-05-18T09:49:49;15.10;95.60
15676;DHT22;7938;47.666;9.434;2023-05-18T09:52:15;15.30;94.90
15676;DHT22;7938;47.666;9.434;2023-05-18T09:54:42;15.20;94.50
15676;DHT22;7938;47.666;9.434;2023-05-18T09:57:09;15.10;94.60
15676;DHT22;7938;47.666;9.434;2023-05-18T09:59:36;15.30;93.90
15676;DHT22;7938;47.666;9.434;2023-05-18T10:02:04;15.60;94.60
15676;DHT22;7938;47.666;9.434;2023-05-18T10:04:37;15.60;93.10
15676;DHT22;7938;47.666;9.434;2023-05-18T10:07:11;15.30;92.80
15676;DHT22;7938;47.666;9.434;2023-05-18T10:09:38;15.40;93.30
15676;DHT22;7938;47.666;9.434;2023-05-18T10:12:12;15.50;93.40
15676;DHT22;7938;47.666;9.434;2023-05-18T10:14:41;15.50;93.10
15676;DHT22;7938;47.666;9.434;2023-05-18T10:17:11;15.40;91.90
15676;DHT22;7938;47.666;9.434;2023-05-18T10:19:39;15.30;93.50
15676;DHT22;7938;47.666;9.434;2023-05-18T10:22:07;15.60;93.70
15676;DHT22;7938;47.666;9.434;2023-05-18T10:24:38;15.80;93.50
15676;DHT22;7938;47.666;9.434;2023-05-18T10:27:07;16.00;92.80
15676;DHT22;7938;47.666;9.434;2023-05-18T10:29:36;16.10;92.70
15676;DHT22;7938;47.666;9.434;2023-05-18T10:32:03;15.90;92.40
15676;DHT22;7938;47.666;9.434;2023-05-18T10:34:32;15.70;93.20
15676;DHT22;7938;47.666;9.434;2023-05-18T10:37:00;15.30;92.70
15676;DHT22;7938;47.666;9.434;2023-05-18T10:39:30;14.60;92.80
15676;DHT22;7938;47.666;9.434;2023-05-18T10:41:59;15.00;93.50
15676;DHT22;7938;47.666;9.434;2023-05-18T10:44:28;15.30;93.80
15676;DHT22;7938;47.666;9.434;2023-05-18T10:46:56;15.20;93.60
15676;DHT22;7938;47.666;9.434;2023-05-18T10:49:25;15.50;94.00
15676;DHT22;7938;47.666;9.434;2023-05-18T10:51:55;15.20;93.60
15676;DHT22;7938;47.666;9.434;2023-05-18T10:54:23;15.10;93.30
15676;DHT22;7938;47.666;9.434;2023-05-18T10:56:52;15.10;93.10
15676;DHT22;7938;47.666;9.434;2023-05-18T10:59:19;15.30;93.70
15676;DHT22;7938;47.666;9.434;2023-05-18T11:01:50;15.40;93.60
15676;DHT22;7938;47.666;9.434;2023-05-18T11:04:22;15.50;92.70
15676;DHT22;7938;47.666;9.434;2023-05-18T11:06:56;15.70;93.60
15676;DHT22;7938;47.666;9.434;2023-05-18T11:09:24;15.80;93.30
15676;DHT22;7938;47.666;9.434;2023-05-18T11:11:52;15.90;92.90
15676;DHT22;7938;47.666;9.434;2023-05-18T11:14:28;15.80;93.20
15676;DHT22;7938;47.666;9.434;2023-05-18T11:17:16;15.80;92.70
15676;DHT22;7938;47.666;9.434;2023-05-18T11:20:11;16.10;93.30
15676;DHT22;7938;47.666;9.434;2023-05-18T11:22:44;15.90;92.80
15676;DHT22;7938;47.666;9.434;2023-05-18T11:25:36;15.90;92.80
15676;DHT22;7938;47.666;9.434;2023-05-18T11:28:05;15.80;93.30
15676;DHT22;7938;47.666;9.434;2023-05-18T11:30:47;15.70;93.20
15676;DHT22;7938;47.666;9.434;2023-05-18T11:33:20;15.90;92.70
15676;DHT22;7938;47.666;9.434;2023-05-18T11:35:57;15.90;93.70
15676;DHT22;7938;47.666;9.434;2023-05-18T11:38:47;15.90;92.80
15676;DHT22;7938;47.666;9.434;2023-05-18T11:41:28;16.10;92.80
15676;DHT22;7938;47.666;9.434;2023-05-18T11:44:13;16.00;92.20
15676;DHT22;7938;47.666;9.434;2023-05-18T11:46:50;15.90;92.80
15676;DHT22;7938;47.666;9.434;2023-05-18T11:49:19;16.10;92.90
15676;DHT22;7938;47.666;9.434;2023-05-18T11:52:07;16.10;93.00
15676;DHT22;7938;47.666;9.434;2023-05-18T11:54:39;15.80;93.60
15676;DHT22;7938;47.666;9.434;2023-05-18T11:57:09;15.90;94.30
15676;DHT22;7938;47.666;9.434;2023-05-18T11:59:39;15.70;93.40
15676;DHT22;7938;47.666;9.434;2023-05-18T12:02:06;15.40;93.20
15676;DHT22;7938;47.666;9.434;2023-05-18T12:04:43;15.30;93.50
15676;DHT22;7938;47.666;9.434;2023-05-18T12:09:43;15.20;93.40
15676;DHT22;7938;47.666;9.434;2023-05-18T12:12:11;15.10;94.00
15676;DHT22;7938;47.666;9.434;2023-05-18T12:14:41;15.10;93.90
15676;DHT22;7938;47.666;9.434;2023-05-18T12:17:10;15.10;93.90
15676;DHT22;7938;47.666;9.434;2023-05-18T12:19:40;15.00;93.90
15676;DHT22;7938;47.666;9.434;2023-05-18T12:22:08;14.90;93.10
15676;DHT22;7938;47.666;9.434;2023-05-18T12:24:36;14.80;93.70
15676;DHT22;7938;47.666;9.434;2023-05-18T12:27:05;14.90;94.10
15676;DHT22;7938;47.666;9.434;2023-05-18T12:29:33;14.80;93.60
15676;DHT22;7938;47.666;9.434;2023-05-18T12:32:05;14.80;93.60
15676;DHT22;7938;47.666;9.434;2023-05-18T12:34:33;14.90;93.80
15676;DHT22;7938;47.666;9.434;2023-05-18T12:37:00;14.90;94.00
15676;DHT22;7938;47.666;9.434;2023-05-18T12:39:27;15.00;94.10
15676;DHT22;7938;47.666;9.434;2023-05-18T12:42:08;14.90;93.30
15676;DHT22;7938;47.666;9.434;2023-05-18T12:44:36;14.90;93.80
15676;DHT22;7938;47.666;9.434;2023-05-18T12:47:03;15.00;94.10
15676;DHT22;7938;47.666;9.434;2023-05-18T12:49:35;15.20;94.10
15676;DHT22;7938;47.666;9.434;2023-05-18T12:52:11;15.40;94.40
15676;DHT22;7938;47.666;9.434;2023-05-18T12:54:50;15.40;94.30
15676;DHT22;7938;47.666;9.434;2023-05-18T12:57:24;15.70;94.80
15676;DHT22;7938;47.666;9.434;2023-05-18T12:59:52;15.70;93.90
15676;DHT22;7938;47.666;9.434;2023-05-18T13:02:30;15.90;93.80
15676;DHT22;7938;47.666;9.434;2023-05-18T13:05:01;15.90;93.90
15676;DHT22;7938;47.666;9.434;2023-05-18T13:07:28;15.70;94.00
15676;DHT22;7938;47.666;9.434;2023-05-18T13:09:59;15.50;94.20
15676;DHT22;7938;47.666;9.434;2023-05-18T13:12:42;15.60;93.90
15676;DHT22;7938;47.666;9.434;2023-05-18T13:15:14;15.50;93.40
15676;DHT22;7938;47.666;9.434;2023-05-18T13:17:55;15.20;93.60
15676;DHT22;7938;47.666;9.434;2023-05-18T13:20:23;15.10;94.10
15676;DHT22;7938;47.666;9.434;2023-05-18T13:22:50;15.20;94.70
15676;DHT22;7938;47.666;9.434;2023-05-18T13:25:17;15.50;95.00
15676;DHT22;7938;47.666;9.434;2023-05-18T13:27:45;15.60;95.20
15676;DHT22;7938;47.666;9.434;2023-05-18T13:30:14;15.50;94.70
15676;DHT22;7938;47.666;9.434;2023-05-18T13:32:40;15.50;95.10
15676;DHT22;7938;47.666;9.434;2023-05-18T13:35:08;15.40;95.00
15676;DHT22;7938;47.666;9.434;2023-05-18T13:37:36;15.40;95.10
15676;DHT22;7938;47.666;9.434;2023-05-18T13:40:04;15.40;94.80
15676;DHT22;7938;47.666;9.434;2023-05-18T13:42:31;15.50;95.40
15676;DHT22;7938;47.666;9.434;2023-05-18T13:45:00;15.90;95.70
15676;DHT22;7938;47.666;9.434;2023-05-18T13:47:27;16.00;94.70
15676;DHT22;7938;47.666;9.434;2023-05-18T13:49:53;16.20;94.90
15676;DHT22;7938;47.666;9.434;2023-05-18T13:52:20;16.00;93.70
15676;DHT22;7938;47.666;9.434;2023-05-18T13:54:47;16.00;94.00
15676;DHT22;7938;47.666;9.434;2023-05-18T13:57:14;16.20;94.10
15676;DHT22;7938;47.666;9.434;2023-05-18T13:59:41;16.20;93.50
15676;DHT22;7938;47.666;9.434;2023-05-18T14:02:09;16.20;93.60
15676;DHT22;7938;47.666;9.434;2023-05-18T14:04:36;16.30;94.10
15676;DHT22;7938;47.666;9.434;2023-05-18T14:07:03;16.20;94.30
15676;DHT22;7938;47.666;9.434;2023-05-18T14:09:30;16.20;94.20
15676;DHT22;7938;47.666;9.434;2023-05-18T14:11:58;16.00;93.50
15676;DHT22;7938;47.666;9.434;2023-05-18T14:14:25;15.90;93.90
15676;DHT22;7938;47.666;9.434;2023-05-18T14:16:52;15.70;94.10
15676;DHT22;7938;47.666;9.434;2023-05-18T14:19:21;15.70;93.90
15676;DHT22;7938;47.666;9.434;2023-05-18T14:21:47;15.70;93.70
15676;DHT22;7938;47.666;9.434;2023-05-18T14:24:14;15.90;94.40
15676;DHT22;7938;47.666;9.434;2023-05-18T14:26:41;16.10;94.00
15676;DHT22;7938;47.666;9.434;2023-05-18T14:29:08;16.20;94.40
15676;DHT22;7938;47.666;9.434;2023-05-18T14:31:35;16.20;94.30
15676;DHT22;7938;47.666;9.434;2023-05-18T14:34:02;16.30;93.80
15676;DHT22;7938;47.666;9.434;2023-05-18T14:36:30;16.40;93.20
15676;DHT22;7938;47.666;9.434;2023-05-18T14:38:57;16.20;93.40
15676;DHT22;7938;47.666;9.434;2023-05-18T14:41:24;15.90;93.40
15676;DHT22;7938;47.666;9.434;2023-05-18T14:43:51;16.10;93.70
15676;DHT22;7938;47.666;9.434;2023-05-18T14:46:18;16.20;93.90
15676;DHT22;7938;47.666;9.434;2023-05-18T14:48:45;16.50;93.70
15676;DHT22;7938;47.666;9.434;2023-05-18T14:51:12;16.50;93.90
15676;DHT22;7938;47.666;9.434;2023-05-18T14:56:39;16.80;93.00
15676;DHT22;7938;47.666;9.434;2023-05-18T14:59:06;17.00;92.70
15676;DHT22;7938;47.666;9.434;2023-05-18T15:01:33;17.00;93.30
15676;DHT22;7938;47.666;9.434;2023-05-18T15:04:00;17.30;93.20
15676;DHT22;7938;47.666;9.434;2023-05-18T15:06:27;17.20;93.00
15676;DHT22;7938;47.666;9.434;2023-05-18T15:08:54;17.10;92.70
15676;DHT22;7938;47.666;9.434;2023-05-18T15:11:21;16.60;91.90
15676;DHT22;7938;47.666;9.434;2023-05-18T15:13:49;16.50;92.10
15676;DHT22;7938;47.666;9.434;2023-05-18T15:16:16;16.70;92.90
15676;DHT22;7938;47.666;9.434;2023-05-18T15:18:44;16.20;93.00
15676;DHT22;7938;47.666;9.434;2023-05-18T15:21:11;16.20;93.30
15676;DHT22;7938;47.666;9.434;2023-05-18T15:23:37;16.30;93.10
15676;DHT22;7938;47.666;9.434;2023-05-18T15:26:04;16.00;93.00
15676;DHT22;7938;47.666;9.434;2023-05-18T15:28:31;15.70;93.20
15676;DHT22;7938;47.666;9.434;2023-05-18T15:31:00;15.80;94.00
15676;DHT22;7938;47.666;9.434;2023-05-18T15:33:26;16.00;94.10
15676;DHT22;7938;47.666;9.434;2023-05-18T15:35:53;15.70;94.30
15676;DHT22;7938;47.666;9.434;2023-05-18T15:38:20;15.60;94.00
15676;DHT22;7938;47.666;9.434;2023-05-18T15:40:47;15.60;94.20
15676;DHT22;7938;47.666;9.434;2023-05-18T15:43:14;15.80;94.60
15676;DHT22;7938;47.666;9.434;2023-05-18T15:45:41;15.70;94.60
15676;DHT22;7938;47.666;9.434;2023-05-18T15:48:10;15.70;94.70
15676;DHT22;7938;47.666;9.434;2023-05-18T15:50:37;15.10;93.60
15676;DHT22;7938;47.666;9.434;2023-05-18T15:53:04;15.80;94.20
15676;DHT22;7938;47.666;9.434;2023-05-18T15:55:31;15.70;93.80
15676;DHT22;7938;47.666;9.434;2023-05-18T15:57:57;15.40;94.10
15676;DHT22;7938;47.666;9.434;2023-05-18T16:00:24;15.30;94.40
15676;DHT22;7938;47.666;9.434;2023-05-18T16:02:51;15.20;94.70
15676;DHT22;7938;47.666;9.434;2023-05-18T16:05:19;15.20;94.80
15676;DHT22;7938;47.666;9.434;2023-05-18T16:07:46;15.20;94.80
15676;DHT22;7938;47.666;9.434;2023-05-18T16:10:13;15.20;94.90
15676;DHT22;7938;47.666;9.434;2023-05-18T16:12:40;15.10;94.80
15676;DHT22;7938;47.666;9.434;2023-05-18T16:15:08;15.00;94.90
15676;DHT22;7938;47.666;9.434;2023-05-18T16:17:35;15.00;95.20
15676;DHT22;7938;47.666;9.434;2023-05-18T16:20:01;15.00;95.30
15676;DHT22;7938;47.666;9.434;2023-05-18T16:22:30;15.00;95.30
15676;DHT22;7938;47.666;9.434;2023-05-18T16:24:57;14.90;95.10
15676;DHT22;7938;47.666;9.434;2023-05-18T16:27:24;14.90;94.90
15676;DHT22;7938;47.666;9.434;2023-05-18T16:29:51;14.80;94.90
15676;DHT22;7938;47.666;9.434;2023-05-18T16:32:18;14.80;94.40
15676;DHT22;7938;47.666;9.434;2023-05-18T16:34:44;14.70;94.80
15676;DHT22;7938;47.666;9.434;2023-05-18T16:37:11;14.70;95.10
15676;DHT22;7938;47.666;9.434;2023-05-18T16:39:40;14.60;94.90
15676;DHT22;7938;47.666;9.434;2023-05-18T16:42:06;14.70;95.30
15676;DHT22;7938;47.666;9.434;2023-05-18T16:44:33;14.60;94.80
15676;DHT22;7938;47.666;9.434;2023-05-18T16:47:01;14.60;95.00
15676;DHT22;7938;47.666;9.434;2023-05-18T16:49:28;14.50;94.80
15676;DHT22;7938;47.666;9.434;2023-05-18T16:51:55;14.50;95.00
15676;DHT22;7938;47.666;9.434;2023-05-18T16:54:21;14.40;95.10
15676;DHT22;7938;47.666;9.434;2023-05-18T16:56:50;14.40;95.30
15676;DHT22;7938;47.666;9.434;2023-05-18T16:59:17;14.40;95.30
15676;DHT22;7938;47.666;9.434;2023-05-18T17:01:44;14.30;94.90
15676;DHT22;7938;47.666;9.434;2023-05-18T17:04:11;14.30;94.60
15676;DHT22;7938;47.666;9.434;2023-05-18T17:06:38;14.20;94.80
15676;DHT22;7938;47.666;9.434;2023-05-18T17:09:05;14.20;95.00
15676;DHT22;7938;47.666;9.434;2023-05-18T17:11:32;14.20;94.80
15676;DHT22;7938;47.666;9.434;2023-05-18T17:14:01;14.10;95.20
15676;DHT22;7938;47.666;9.434;2023-05-18T17:16:27;14.10;95.20
15676;DHT22;7938;47.666;9.434;2023-05-18T17:18:57;14.00;95.30
15676;DHT22;7938;47.666;9.434;2023-05-18T17:21:24;14.10;95.40
15676;DHT22;7938;47.666;9.434;2023-05-18T17:23:52;14.00;95.70
15676;DHT22;7938;47.666;9.434;2023-05-18T17:26:19;14.00;95.70
15676;DHT22;7938;47.666;9.434;2023-05-18T17:28:46;14.00;95.80
15676;DHT22;7938;47.666;9.434;2023-05-18T17:31:15;13.90;95.50
15676;DHT22;7938;47.666;9.434;2023-05-18T17:33:42;13.90;95.50
15676;DHT22;7938;47.666;9.434;2023-05-18T17:36:11;13.80;95.60
15676;DHT22;7938;47.666;9.434;2023-05-18T17:38:38;13.80;95.90
15676;DHT22;7938;47.666;9.434;2023-05-18T17:41:05;13.70;95.60
15676;DHT22;7938;47.666;9.434;2023-05-18T17:43:32;13.70;95.60
15676;DHT22;7938;47.666;9.434;2023-05-18T17:45:59;13.70;95.30
15676;DHT22;7938;47.666;9.434;2023-05-18T17:48:28;13.60;95.30
15676;DHT22;7938;47.666;9.434;2023-05-18T17:50:54;13.60;96.10
15676;DHT22;7938;47.666;9.434;2023-05-18T17:53:21;13.60;96.20
15676;DHT22;7938;47.666;9.434;2023-05-18T17:55:48;13.70;95.50
15676;DHT22;7938;47.666;9.434;2023-05-18T17:58:15;14.10;96.00
15676;DHT22;7938;47.666;9.434;2023-05-18T18:00:42;13.50;95.50
15676;DHT22;7938;47.666;9.434;2023-05-18T18:03:09;13.50;95.70
15676;DHT22;7938;47.666;9.434;2023-05-18T18:05:38;13.50;95.90
15676;DHT22;7938;47.666;9.434;2023-05-18T18:08:05;13.30;96.10
15676;DHT22;7938;47.666;9.434;2023-05-18T18:10:32;14.80;97.00
15676;DHT22;7938;47.666;9.434;2023-05-18T18:12:59;13.10;96.50
15676;DHT22;7938;47.666;9.434;2023-05-18T18:15:26;13.00;96.60
15676;DHT22;7938;47.666;9.434;2023-05-18T18:17:53;12.90;96.90
15676;DHT22;7938;47.666;9.434;2023-05-18T18:20:20;12.80;97.00
15676;DHT22;7938;47.666;9.434;2023-05-18T18:22:48;12.80;97.20
15676;DHT22;7938;47.666;9.434;2023-05-18T18:25:15;12.80;97.20
15676;DHT22;7938;47.666;9.434;2023-05-18T18:27:42;12.70;97.40
15676;DHT22;7938;47.666;9.434;2023-05-18T18:30:10;12.70;97.20
15676;DHT22;7938;47.666;9.434;2023-05-18T18:32:37;12.80;97.00
15676;DHT22;7938;47.666;9.434;2023-05-18T18:35:04;12.80;96.90
15676;DHT22;7938;47.666;9.434;2023-05-18T18:37:31;12.90;97.20
15676;DHT22;7938;47.666;9.434;2023-05-18T18:40:00;12.90;97.30
15676;DHT22;7938;47.666;9.434;2023-05-18T18:42:27;12.80;96.80
15676;DHT22;7938;47.666;9.434;2023-05-18T18:44:53;12.80;97.20
15676;DHT22;7938;47.666;9.434;2023-05-18T18:47:21;12.80;97.30
15676;DHT22;7938;47.666;9.434;2023-05-18T18:49:48;12.80;97.50
15676;DHT22;7938;47.666;9.434;2023-05-18T18:52:15;12.70;97.00
15676;DHT22;7938;47.666;9.434;2023-05-18T18:54:42;12.70;97.20
15676;DHT22;7938;47.666;9.434;2023-05-18T18:59:38;12.60;97.10
15676;DHT22;7938;47.666;9.434;2023-05-18T19:02:05;12.60;97.70
15676;DHT22;7938;47.666;9.434;2023-05-18T19:04:32;12.60;97.50
15676;DHT22;7938;47.666;9.434;2023-05-18T19:06:59;12.50;97.90
15676;DHT22;7938;47.666;9.434;2023-05-18T19:09:28;12.50;97.90
15676;DHT22;7938;47.666;9.434;2023-05-18T19:11:57;12.50;97.60
15676;DHT22;7938;47.666;9.434;2023-05-18T19:14:25;12.40;98.10
15676;DHT22;7938;47.666;9.434;2023-05-18T19:16:53;12.40;98.20
15676;DHT22;7938;47.666;9.434;2023-05-18T19:19:20;12.40;98.40
15676;DHT22;7938;47.666;9.434;2023-05-18T19:21:47;12.40;98.40
15676;DHT22;7938;47.666;9.434;2023-05-18T19:24:14;12.40;98.40
15676;DHT22;7938;47.666;9.434;2023-05-18T19:26:41;12.40;98.40
15676;DHT22;7938;47.666;9.434;2023-05-18T19:29:08;12.30;98.70
15676;DHT22;7938;47.666;9.434;2023-05-18T19:31:36;12.30;98.20
15676;DHT22;7938;47.666;9.434;2023-05-18T19:34:03;12.30;98.60
15676;DHT22;7938;47.666;9.434;2023-05-18T19:36:30;12.30;98.60
15676;DHT22;7938;47.666;9.434;2023-05-18T19:38:57;12.30;98.60
15676;DHT22;7938;47.666;9.434;2023-05-18T19:41:25;12.30;98.70
15676;DHT22;7938;47.666;9.434;2023-05-18T19:43:52;12.30;99.00
15676;DHT22;7938;47.666;9.434;2023-05-18T19:46:19;12.30;98.90
15676;DHT22;7938;47.666;9.434;2023-05-18T19:48:47;12.30;99.00
15676;DHT22;7938;47.666;9.434;2023-05-18T19:51:14;12.20;98.70
15676;DHT22;7938;47.666;9.434;2023-05-18T19:53:41;12.20;99.00
15676;DHT22;7938;47.666;9.434;2023-05-18T19:56:09;12.10;99.10
15676;DHT22;7938;47.666;9.434;2023-05-18T19:58:36;12.20;99.20
15676;DHT22;7938;47.666;9.434;2023-05-18T20:01:03;12.20;98.90
15676;DHT22;7938;47.666;9.434;2023-05-18T20:03:30;12.20;99.20
15676;DHT22;7938;47.666;9.434;2023-05-18T20:05:58;12.20;99.20